createdAt,value
2017-09-30T00:01:11.479Z,22.23
2017-09-30T00:03:37.761Z,22.13
2017-09-30T00:06:04.069Z,23.53
2017-09-30T00:08:31.138Z,23.30
2017-09-30T00:10:58.168Z,23.03
2017-09-30T00:13:25.217Z,22.27
2017-09-30T00:15:52.251Z,23.30
2017-09-30T00:18:18.566Z,23.80
2017-09-30T00:20:46.357Z,24.00
2017-09-30T00:23:13.398Z,22.23
2017-09-30T00:25:40.416Z,22.33
2017-09-30T00:28:06.725Z,23.77
2017-09-30T00:30:33.009Z,22.90
2017-09-30T00:33:00.058Z,23.57
2017-09-30T00:35:27.114Z,23.83
2017-09-30T00:37:54.165Z,22.80
2017-09-30T00:40:21.217Z,22.07
2017-09-30T00:42:47.513Z,22.90
2017-09-30T00:45:14.567Z,23.13
2017-09-30T00:47:41.678Z,22.20
2017-09-30T00:50:07.981Z,23.00
2017-09-30T00:52:34.286Z,23.07
2017-09-30T00:55:00.619Z,23.00
2017-09-30T00:57:27.690Z,23.67
2017-09-30T00:59:54.014Z,23.57
2017-09-30T01:02:20.321Z,24.17
2017-09-30T01:04:47.403Z,23.77
2017-09-30T01:07:13.709Z,22.60
2017-09-30T01:09:40.747Z,22.30
2017-09-30T01:12:07.814Z,24.50
2017-09-30T01:14:34.890Z,22.80
2017-09-30T01:17:01.285Z,22.70
2017-09-30T01:19:27.609Z,23.10
2017-09-30T01:21:54.675Z,23.57
2017-09-30T01:24:20.985Z,22.27
2017-09-30T01:26:47.302Z,24.00
2017-09-30T01:29:14.636Z,23.60
2017-09-30T01:31:41.734Z,23.53
2017-09-30T01:34:08.060Z,24.03
2017-09-30T01:36:34.390Z,23.50
2017-09-30T01:39:00.707Z,23.03
2017-09-30T01:41:27.060Z,24.03
2017-09-30T01:43:53.381Z,23.93
2017-09-30T01:46:19.713Z,24.20
2017-09-30T01:48:46.023Z,24.27
2017-09-30T01:51:13.092Z,23.97
2017-09-30T01:53:39.408Z,24.97
2017-09-30T01:56:06.479Z,23.43
2017-09-30T01:58:32.810Z,24.90
2017-09-30T02:00:59.190Z,23.63
2017-09-30T02:03:26.250Z,22.83
2017-09-30T02:05:53.333Z,25.10
2017-09-30T02:08:20.840Z,23.43
2017-09-30T02:10:47.941Z,25.60
2017-09-30T02:13:14.243Z,24.17
2017-09-30T02:15:41.318Z,25.20
2017-09-30T02:18:07.632Z,25.47
2017-09-30T02:20:33.944Z,25.77
2017-09-30T02:23:00.995Z,25.43
2017-09-30T02:25:28.035Z,25.60
2017-09-30T02:27:55.093Z,23.47
2017-09-30T02:30:22.146Z,25.10
2017-09-30T02:32:49.207Z,26.10
2017-09-30T02:35:15.494Z,25.73
2017-09-30T02:37:42.629Z,27.13
2017-09-30T02:40:08.924Z,25.20
2017-09-30T02:42:35.243Z,25.67
2017-09-30T02:45:02.282Z,26.73
2017-09-30T02:47:29.334Z,25.93
2017-09-30T02:49:56.370Z,25.20
2017-09-30T02:52:23.399Z,26.07
2017-09-30T02:54:50.450Z,26.10
2017-09-30T02:57:16.766Z,26.00
2017-09-30T02:59:43.041Z,25.93
2017-09-30T03:02:09.353Z,27.10
2017-09-30T03:04:35.652Z,27.60
2017-09-30T03:07:01.925Z,26.60
2017-09-30T03:09:28.231Z,26.23
2017-09-30T03:11:54.510Z,28.07
2017-09-30T03:14:20.817Z,27.40
2017-09-30T03:16:47.106Z,25.93
2017-09-30T03:19:13.418Z,27.07
2017-09-30T03:21:39.701Z,25.43
2017-09-30T03:24:05.996Z,26.70
2017-09-30T03:26:32.278Z,25.70
2017-09-30T03:28:59.512Z,25.57
2017-09-30T03:31:26.567Z,25.93
2017-09-30T03:33:52.871Z,27.50
2017-09-30T03:36:19.146Z,26.17
2017-09-30T03:38:45.451Z,28.00
2017-09-30T03:41:11.742Z,26.27
2017-09-30T03:43:38.083Z,26.60
2017-09-30T03:46:05.132Z,27.57
2017-09-30T03:48:31.435Z,26.20
2017-09-30T03:50:57.709Z,25.77
2017-09-30T03:53:23.995Z,26.87
2017-09-30T03:55:50.301Z,26.90
2017-09-30T03:58:16.601Z,29.43
2017-09-30T04:00:42.938Z,27.67
2017-09-30T04:03:09.263Z,27.70
2017-09-30T04:05:35.569Z,28.10
2017-09-30T04:08:02.604Z,29.03
2017-09-30T04:10:28.894Z,28.13
2017-09-30T04:12:55.159Z,27.37
2017-09-30T04:15:21.450Z,27.83
2017-09-30T04:17:47.735Z,28.03
2017-09-30T04:20:14.777Z,29.87
2017-09-30T04:22:41.054Z,27.63
2017-09-30T04:25:07.338Z,28.80
2017-09-30T04:27:35.253Z,28.70
2017-09-30T04:30:01.566Z,28.03
2017-09-30T04:32:27.850Z,28.40
2017-09-30T04:34:54.180Z,28.60
2017-09-30T04:37:20.501Z,28.70
2017-09-30T04:39:46.820Z,30.17
2017-09-30T04:42:14.097Z,29.50
2017-09-30T04:44:40.382Z,28.90
2017-09-30T04:47:06.683Z,29.07
2017-09-30T04:49:32.991Z,28.30
2017-09-30T04:51:59.284Z,28.37
2017-09-30T04:54:25.574Z,29.13
2017-09-30T04:56:52.607Z,29.10
2017-09-30T04:59:19.646Z,30.53
2017-09-30T05:01:46.691Z,30.90
2017-09-30T05:04:12.964Z,30.03
2017-09-30T05:06:39.242Z,29.57
2017-09-30T05:09:06.303Z,30.73
2017-09-30T05:11:32.690Z,30.70
2017-09-30T05:13:59.000Z,28.80
2017-09-30T05:16:25.269Z,27.70
2017-09-30T05:18:52.620Z,28.73
2017-09-30T05:21:19.240Z,27.60
2017-09-30T05:23:45.527Z,30.27
2017-09-30T05:26:11.847Z,29.03
2017-09-30T05:28:38.907Z,28.07
2017-09-30T05:31:05.925Z,29.20
2017-09-30T05:33:32.237Z,27.83
2017-09-30T05:35:58.544Z,28.40
2017-09-30T05:38:24.866Z,28.07
2017-09-30T05:40:51.153Z,28.60
2017-09-30T05:43:17.453Z,27.50
2017-09-30T05:45:43.761Z,31.13
2017-09-30T05:48:10.062Z,32.80
2017-09-30T05:50:36.377Z,32.30
2017-09-30T05:53:03.432Z,31.50
2017-09-30T05:55:29.748Z,31.43
2017-09-30T05:57:56.043Z,28.80
2017-09-30T06:00:22.350Z,28.40
2017-09-30T06:02:48.637Z,27.07
2017-09-30T06:05:15.213Z,29.00
2017-09-30T06:07:41.508Z,28.43
2017-09-30T06:10:08.563Z,28.33
2017-09-30T06:12:35.625Z,28.70
2017-09-30T06:15:01.959Z,27.63
2017-09-30T06:17:28.270Z,28.27
2017-09-30T06:19:55.338Z,27.00
2017-09-30T06:22:21.652Z,26.70
2017-09-30T06:24:48.691Z,26.90
2017-09-30T06:27:15.740Z,28.13
2017-09-30T06:29:42.791Z,28.00
2017-09-30T06:32:09.819Z,26.73
2017-09-30T06:34:36.193Z,26.60
2017-09-30T06:37:02.500Z,28.87
2017-09-30T06:39:28.820Z,27.13
2017-09-30T06:41:55.879Z,28.40
2017-09-30T06:44:22.212Z,27.90
2017-09-30T06:46:49.248Z,28.10
2017-09-30T06:49:16.303Z,28.97
2017-09-30T06:51:43.362Z,27.23
2017-09-30T06:54:09.696Z,26.63
2017-09-30T06:56:36.026Z,28.47
2017-09-30T06:59:02.397Z,28.80
2017-09-30T07:01:28.714Z,27.47
2017-09-30T07:03:55.000Z,28.23
2017-09-30T07:06:22.058Z,28.03
2017-09-30T07:08:48.712Z,28.37
2017-09-30T07:11:15.026Z,27.53
2017-09-30T07:13:41.345Z,28.10
2017-09-30T07:16:07.701Z,28.40
2017-09-30T07:18:34.035Z,27.17
2017-09-30T07:21:00.398Z,27.60
2017-09-30T07:23:26.692Z,28.63
2017-09-30T07:25:53.006Z,27.47
2017-09-30T07:28:19.324Z,29.63
2017-09-30T07:30:46.368Z,28.47
2017-09-30T07:33:13.415Z,28.37
2017-09-30T07:35:39.737Z,29.33
2017-09-30T07:38:06.794Z,28.80
2017-09-30T07:40:33.863Z,28.87
2017-09-30T07:43:00.181Z,27.50
2017-09-30T07:45:27.208Z,29.17
2017-09-30T07:47:54.269Z,28.90
2017-09-30T07:50:21.303Z,27.97
2017-09-30T07:52:48.342Z,28.00
2017-09-30T07:55:15.406Z,27.73
2017-09-30T07:57:41.734Z,28.83
2017-09-30T08:00:08.078Z,28.27
2017-09-30T08:02:34.389Z,28.40
2017-09-30T08:05:01.436Z,27.77
2017-09-30T08:07:28.483Z,26.77
2017-09-30T08:09:55.551Z,28.30
2017-09-30T08:12:21.845Z,28.90
2017-09-30T08:14:48.135Z,29.00
2017-09-30T08:17:14.473Z,27.03
2017-09-30T08:19:40.768Z,28.87
2017-09-30T08:22:07.788Z,28.10
2017-09-30T08:24:34.859Z,27.37
2017-09-30T08:27:01.907Z,27.73
2017-09-30T08:29:28.270Z,28.57
2017-09-30T08:31:54.575Z,28.77
2017-09-30T08:34:20.904Z,27.30
2017-09-30T08:36:47.221Z,28.10
2017-09-30T08:39:14.278Z,26.70
2017-09-30T08:41:41.338Z,29.53
2017-09-30T08:44:07.655Z,27.97
2017-09-30T08:46:33.962Z,28.43
2017-09-30T08:49:01.047Z,28.47
2017-09-30T08:51:27.361Z,26.90
2017-09-30T08:53:53.693Z,27.77
2017-09-30T08:56:20.047Z,26.67
2017-09-30T08:58:46.371Z,27.70
2017-09-30T09:01:12.678Z,25.13
2017-09-30T09:03:39.731Z,27.50
2017-09-30T09:06:06.039Z,28.80
2017-09-30T09:08:33.082Z,26.00
2017-09-30T09:11:00.149Z,28.03
2017-09-30T09:13:27.186Z,26.10
2017-09-30T09:15:54.257Z,27.30
2017-09-30T09:18:20.557Z,27.60
2017-09-30T09:20:48.345Z,27.30
2017-09-30T09:23:14.634Z,27.37
2017-09-30T09:25:42.430Z,26.90
2017-09-30T09:28:08.791Z,25.10
2017-09-30T09:30:35.126Z,26.67
2017-09-30T09:33:01.430Z,25.40
2017-09-30T09:35:27.710Z,35.80
2017-09-30T09:37:54.015Z,45.13
2017-09-30T09:40:20.312Z,31.70
2017-09-30T09:42:46.621Z,31.67
2017-09-30T09:45:14.411Z,27.47
2017-09-30T09:47:40.784Z,27.10
2017-09-30T09:50:07.165Z,26.37
2017-09-30T09:52:34.219Z,26.20
2017-09-30T09:55:00.562Z,27.00
2017-09-30T09:57:27.765Z,26.50
2017-09-30T09:59:55.545Z,26.67
2017-09-30T10:02:22.616Z,26.50
2017-09-30T10:04:48.936Z,24.70
2017-09-30T10:07:17.080Z,26.63
2017-09-30T10:09:44.822Z,24.87
2017-09-30T10:12:12.329Z,25.93
2017-09-30T10:14:40.106Z,26.13
2017-09-30T10:17:06.503Z,25.00
2017-09-30T10:19:32.831Z,24.27
2017-09-30T10:21:59.141Z,25.33
2017-09-30T10:24:25.449Z,27.83
2017-09-30T10:26:51.795Z,23.97
2017-09-30T10:29:18.127Z,25.43
2017-09-30T10:31:46.227Z,25.57
2017-09-30T10:34:13.306Z,26.10
2017-09-30T10:36:39.621Z,25.60
2017-09-30T10:39:06.691Z,25.07
2017-09-30T10:41:33.026Z,25.33
2017-09-30T10:44:00.374Z,26.33
2017-09-30T10:46:26.726Z,23.77
2017-09-30T10:48:53.039Z,26.73
2017-09-30T10:51:19.328Z,25.47
2017-09-30T10:53:45.639Z,25.17
2017-09-30T10:56:11.967Z,25.00
2017-09-30T10:58:39.109Z,24.90
2017-09-30T11:01:05.421Z,25.13
2017-09-30T11:03:32.458Z,23.43
2017-09-30T11:05:58.773Z,25.60
2017-09-30T11:08:25.816Z,23.97
2017-09-30T11:10:52.872Z,23.60
2017-09-30T11:13:19.916Z,28.83
2017-09-30T11:15:46.977Z,23.07
2017-09-30T11:18:13.270Z,31.40
2017-09-30T11:20:40.343Z,24.23
2017-09-30T11:23:06.772Z,21.80
2017-09-30T11:25:33.838Z,21.17
2017-09-30T11:28:00.148Z,24.97
2017-09-30T11:30:26.446Z,20.63
2017-09-30T11:32:52.773Z,20.63
2017-09-30T11:35:20.562Z,20.63
2017-09-30T11:37:47.608Z,20.13
2017-09-30T11:40:14.676Z,19.67
2017-09-30T11:42:41.038Z,19.60
2017-09-30T11:45:07.365Z,20.37
2017-09-30T11:47:33.681Z,20.77
2017-09-30T11:50:01.515Z,18.80
2017-09-30T11:52:27.816Z,19.50
2017-09-30T11:54:54.109Z,19.40
2017-09-30T11:57:20.423Z,19.30
2017-09-30T11:59:46.760Z,18.60
2017-09-30T12:02:13.225Z,19.60
2017-09-30T12:04:39.657Z,17.83
2017-09-30T12:07:06.148Z,17.87
2017-09-30T12:09:32.461Z,18.60
2017-09-30T12:11:59.522Z,17.57
2017-09-30T12:14:25.820Z,18.87
2017-09-30T12:16:52.154Z,18.43
2017-09-30T12:19:18.470Z,18.70
2017-09-30T12:21:44.756Z,18.17
2017-09-30T12:24:11.102Z,18.00
2017-09-30T12:26:37.423Z,17.47
2017-09-30T12:29:03.763Z,18.10
2017-09-30T12:31:30.063Z,17.60
2017-09-30T12:33:56.638Z,17.80
2017-09-30T12:36:22.953Z,16.70
2017-09-30T12:38:49.279Z,16.67
2017-09-30T12:41:15.592Z,18.27
2017-09-30T12:43:41.897Z,18.00
2017-09-30T12:46:08.950Z,17.70
2017-09-30T12:48:36.042Z,17.17
2017-09-30T12:51:02.383Z,16.50
2017-09-30T12:53:28.692Z,18.00
2017-09-30T12:55:55.328Z,24.33
2017-09-30T12:58:21.690Z,24.73
2017-09-30T13:00:48.029Z,17.90
2017-09-30T13:03:15.848Z,17.67
2017-09-30T13:05:42.185Z,19.47
2017-09-30T13:08:08.556Z,17.43
2017-09-30T13:10:34.885Z,18.23
2017-09-30T13:13:02.699Z,17.00
2017-09-30T13:15:29.001Z,17.20
2017-09-30T13:17:56.090Z,17.20
2017-09-30T13:20:22.407Z,17.93
2017-09-30T13:22:48.707Z,16.67
2017-09-30T13:25:15.797Z,18.17
2017-09-30T13:27:42.121Z,17.63
2017-09-30T13:30:08.453Z,18.20
2017-09-30T13:32:34.770Z,17.80
2017-09-30T13:35:01.107Z,18.40
2017-09-30T13:37:27.486Z,17.37
2017-09-30T13:39:53.793Z,17.80
2017-09-30T13:42:20.114Z,17.77
2017-09-30T13:44:46.433Z,18.57
2017-09-30T13:47:12.749Z,18.93
2017-09-30T13:49:39.083Z,17.70
2017-09-30T13:52:05.408Z,17.13
2017-09-30T13:54:32.425Z,16.27
2017-09-30T13:56:58.733Z,16.27
2017-09-30T13:59:25.030Z,17.40
2017-09-30T14:01:51.339Z,18.37
2017-09-30T14:04:18.412Z,21.17
2017-09-30T14:06:44.716Z,18.50
2017-09-30T14:09:11.740Z,17.00
2017-09-30T14:11:38.149Z,16.80
2017-09-30T14:14:04.475Z,17.53
2017-09-30T14:16:30.793Z,16.40
2017-09-30T14:18:57.086Z,17.20
2017-09-30T14:21:24.779Z,16.50
2017-09-30T14:23:51.091Z,15.70
2017-09-30T14:26:17.391Z,16.13
2017-09-30T14:28:44.454Z,16.27
2017-09-30T14:31:11.491Z,16.67
2017-09-30T14:33:38.538Z,16.53
2017-09-30T14:36:05.609Z,17.47
2017-09-30T14:38:31.944Z,16.80
2017-09-30T14:40:58.250Z,17.57
2017-09-30T14:43:24.566Z,16.33
2017-09-30T14:45:50.871Z,16.40
2017-09-30T14:48:17.170Z,16.87
2017-09-30T14:50:43.493Z,16.83
2017-09-30T14:53:09.791Z,16.83
2017-09-30T14:55:36.857Z,16.30
2017-09-30T14:58:03.160Z,17.17
2017-09-30T15:00:29.491Z,16.80
2017-09-30T15:02:56.560Z,16.83
2017-09-30T15:05:23.613Z,15.10
2017-09-30T15:07:50.644Z,16.57
2017-09-30T15:10:17.689Z,16.40
2017-09-30T15:12:44.743Z,14.70
2017-09-30T15:15:11.800Z,16.27
2017-09-30T15:17:38.828Z,16.27
2017-09-30T15:20:05.921Z,15.40
2017-09-30T15:22:32.216Z,17.63
2017-09-30T15:24:59.262Z,15.23
2017-09-30T15:27:26.315Z,17.57
2017-09-30T15:29:53.368Z,16.13
2017-09-30T15:32:20.418Z,15.37
2017-09-30T15:34:46.716Z,15.13
2017-09-30T15:37:13.008Z,15.43
2017-09-30T15:39:39.312Z,15.50
2017-09-30T15:42:05.607Z,14.97
2017-09-30T15:44:33.390Z,15.00
2017-09-30T15:47:00.430Z,15.20
2017-09-30T15:49:27.485Z,13.60
2017-09-30T15:51:54.535Z,14.80
2017-09-30T15:54:21.590Z,14.50
2017-09-30T15:56:47.923Z,14.70
2017-09-30T15:59:14.216Z,15.53
2017-09-30T16:01:40.508Z,15.03
2017-09-30T16:04:06.814Z,13.77
2017-09-30T16:06:33.856Z,14.73
2017-09-30T16:09:00.204Z,14.40
2017-09-30T16:11:26.494Z,12.97
2017-09-30T16:13:53.569Z,14.40
2017-09-30T16:16:19.919Z,14.53
2017-09-30T16:18:46.232Z,12.30
2017-09-30T16:21:12.531Z,13.23
2017-09-30T16:23:38.847Z,12.97
2017-09-30T16:26:05.144Z,13.30
2017-09-30T16:28:31.449Z,13.23
2017-09-30T16:30:57.762Z,12.87
2017-09-30T16:33:24.084Z,13.13
2017-09-30T16:35:50.399Z,12.80
2017-09-30T16:38:18.165Z,13.90
2017-09-30T16:40:45.257Z,13.87
2017-09-30T16:43:11.564Z,12.83
2017-09-30T16:45:37.885Z,12.20
2017-09-30T16:48:04.942Z,12.67
2017-09-30T16:50:31.252Z,13.27
2017-09-30T16:52:58.294Z,12.80
2017-09-30T16:55:26.096Z,12.50
2017-09-30T16:57:52.389Z,12.90
2017-09-30T17:00:19.470Z,13.00
2017-09-30T17:02:45.776Z,13.67
2017-09-30T17:05:12.085Z,13.77
2017-09-30T17:07:38.361Z,12.30
2017-09-30T17:10:04.643Z,12.93
2017-09-30T17:12:30.938Z,13.90
2017-09-30T17:14:57.218Z,14.00
2017-09-30T17:17:24.981Z,12.97
2017-09-30T17:19:52.771Z,12.83
2017-09-30T17:22:19.090Z,13.37
2017-09-30T17:24:46.115Z,13.90
2017-09-30T17:27:13.168Z,13.97
2017-09-30T17:29:40.209Z,14.33
2017-09-30T17:32:06.521Z,14.77
2017-09-30T17:34:34.361Z,14.00
2017-09-30T17:37:00.686Z,14.53
2017-09-30T17:39:26.975Z,12.77
2017-09-30T17:41:53.320Z,13.93
2017-09-30T17:44:20.397Z,13.70
2017-09-30T17:46:46.690Z,14.83
2017-09-30T17:49:13.784Z,14.30
2017-09-30T17:51:40.102Z,13.70
2017-09-30T17:54:06.582Z,15.03
2017-09-30T17:56:33.377Z,14.60
2017-09-30T17:58:59.658Z,14.27
2017-09-30T18:01:26.755Z,14.13
2017-09-30T18:03:53.049Z,13.60
2017-09-30T18:06:20.079Z,14.60
2017-09-30T18:08:46.488Z,13.80
2017-09-30T18:11:12.770Z,13.40
2017-09-30T18:13:39.809Z,13.80
2017-09-30T18:16:06.837Z,13.70
2017-09-30T18:18:33.142Z,14.37
2017-09-30T18:20:59.446Z,14.17
2017-09-30T18:23:25.733Z,14.53
2017-09-30T18:25:52.792Z,13.43
2017-09-30T18:28:19.187Z,13.97
2017-09-30T18:30:45.499Z,14.10
2017-09-30T18:33:11.770Z,13.83
2017-09-30T18:35:38.054Z,12.67
2017-09-30T18:38:04.353Z,13.03
2017-09-30T18:40:30.821Z,13.57
2017-09-30T18:42:57.824Z,13.67
2017-09-30T18:45:24.196Z,12.90
2017-09-30T18:47:50.509Z,13.33
2017-09-30T18:50:16.812Z,13.43
2017-09-30T18:52:43.839Z,11.83
2017-09-30T18:55:11.611Z,13.00
2017-09-30T18:57:38.644Z,13.80
2017-09-30T19:00:04.954Z,12.30
2017-09-30T19:02:31.314Z,12.40
2017-09-30T19:04:59.079Z,13.20
2017-09-30T19:07:26.860Z,12.43
2017-09-30T19:09:53.169Z,12.50
2017-09-30T19:12:19.452Z,12.40
2017-09-30T19:14:45.728Z,13.07
2017-09-30T19:17:13.506Z,12.90
2017-09-30T19:19:40.530Z,12.60
2017-09-30T19:22:06.824Z,12.47
2017-09-30T19:24:33.093Z,12.70
2017-09-30T19:27:00.162Z,11.80
2017-09-30T19:29:27.205Z,12.37
2017-09-30T19:31:54.242Z,12.93
2017-09-30T19:34:21.298Z,12.73
2017-09-30T19:36:48.318Z,12.73
2017-09-30T19:39:14.608Z,13.70
2017-09-30T19:41:40.904Z,12.67
2017-09-30T19:44:07.962Z,12.80
2017-09-30T19:46:34.990Z,12.30
2017-09-30T19:49:02.053Z,13.00
2017-09-30T19:51:29.064Z,12.57
2017-09-30T19:53:55.396Z,12.83
2017-09-30T19:56:22.454Z,12.60
2017-09-30T19:58:50.224Z,13.33
2017-09-30T20:01:17.972Z,12.90
2017-09-30T20:03:45.039Z,12.33
2017-09-30T20:06:12.077Z,12.70
2017-09-30T20:08:39.842Z,13.13
2017-09-30T20:11:07.664Z,12.77
2017-09-30T20:13:33.965Z,13.20
2017-09-30T20:16:00.269Z,13.90
2017-09-30T20:18:26.570Z,12.73
2017-09-30T20:20:52.858Z,13.50
2017-09-30T20:23:19.155Z,13.20
2017-09-30T20:25:46.923Z,12.70
2017-09-30T20:28:13.228Z,13.37
2017-09-30T20:30:39.524Z,12.90
2017-09-30T20:33:05.812Z,13.37
2017-09-30T20:35:33.579Z,14.10
2017-09-30T20:38:00.608Z,13.57
2017-09-30T20:40:28.405Z,13.10
2017-09-30T20:42:54.718Z,13.63
2017-09-30T20:45:22.482Z,14.37
2017-09-30T20:47:49.505Z,13.00
2017-09-30T20:50:15.882Z,13.37
2017-09-30T20:52:42.910Z,13.77
2017-09-30T20:55:09.938Z,14.30
2017-09-30T20:57:37.730Z,14.30
2017-09-30T21:00:04.766Z,13.60
2017-09-30T21:02:31.847Z,13.00
2017-09-30T21:04:58.147Z,14.33
2017-09-30T21:07:25.197Z,13.30
2017-09-30T21:09:52.226Z,13.30
2017-09-30T21:12:19.256Z,14.47
2017-09-30T21:14:45.540Z,14.00
2017-09-30T21:17:11.853Z,14.00
2017-09-30T21:19:38.886Z,13.57
2017-09-30T21:22:05.957Z,14.00
2017-09-30T21:24:32.981Z,14.80
2017-09-30T21:27:00.041Z,13.93
2017-09-30T21:29:27.092Z,14.87
2017-09-30T21:31:54.138Z,14.57
2017-09-30T21:34:21.174Z,15.27
2017-09-30T21:36:48.243Z,13.83
2017-09-30T21:39:15.266Z,14.67
2017-09-30T21:41:41.552Z,15.23
2017-09-30T21:44:07.854Z,13.27
2017-09-30T21:46:34.175Z,14.60
2017-09-30T21:49:01.208Z,14.90
2017-09-30T21:51:28.240Z,15.63
2017-09-30T21:53:55.278Z,14.70
2017-09-30T21:56:21.550Z,15.50
2017-09-30T21:58:48.558Z,15.33
2017-09-30T22:01:14.861Z,15.03
2017-09-30T22:03:41.179Z,16.07
2017-09-30T22:06:07.486Z,15.60
2017-09-30T22:08:33.846Z,14.00
2017-09-30T22:11:00.156Z,15.30
2017-09-30T22:13:26.465Z,16.73
2017-09-30T22:15:53.480Z,16.10
2017-09-30T22:18:19.783Z,14.90
2017-09-30T22:20:46.104Z,16.07
2017-09-30T22:23:12.426Z,16.60
2017-09-30T22:25:38.747Z,16.17
2017-09-30T22:28:05.039Z,17.30
2017-09-30T22:30:31.367Z,16.30
2017-09-30T22:32:58.400Z,17.20
2017-09-30T22:35:24.684Z,14.50
2017-09-30T22:37:51.713Z,13.90
2017-09-30T22:40:18.755Z,15.20
2017-09-30T22:42:45.798Z,14.03
2017-09-30T22:45:12.867Z,16.23
2017-09-30T22:47:39.177Z,14.80
2017-09-30T22:50:06.534Z,15.00
2017-09-30T22:52:33.570Z,16.40
2017-09-30T22:55:00.587Z,16.60
2017-09-30T22:57:26.879Z,16.80
2017-09-30T22:59:53.183Z,16.40
2017-09-30T23:02:20.226Z,16.57
2017-09-30T23:04:47.254Z,18.00
2017-09-30T23:07:13.534Z,17.43
2017-09-30T23:09:39.814Z,19.23
2017-09-30T23:12:06.866Z,19.40
2017-09-30T23:14:33.162Z,20.13
2017-09-30T23:16:59.450Z,18.17
2017-09-30T23:19:26.478Z,19.57
2017-09-30T23:21:54.257Z,19.70
2017-09-30T23:24:20.602Z,20.00
2017-09-30T23:26:46.905Z,19.37
2017-09-30T23:29:14.671Z,18.33
2017-09-30T23:31:42.441Z,18.90
2017-09-30T23:34:09.486Z,19.53
2017-09-30T23:36:36.810Z,20.50
2017-09-30T23:39:03.159Z,18.90
2017-09-30T23:41:29.442Z,20.13
2017-09-30T23:43:55.724Z,19.53
2017-09-30T23:46:22.760Z,20.17
2017-09-30T23:48:50.517Z,20.60
2017-09-30T23:51:17.594Z,19.30
2017-09-30T23:53:44.610Z,20.60
2017-09-30T23:56:10.887Z,20.13
2017-09-30T23:58:37.171Z,20.93
